createdAt,value
2019-02-05T00:03:58.891Z,100775.70
2019-02-05T00:08:06.993Z,100778.56
2019-02-05T00:12:14.886Z,100786.72
2019-02-05T00:16:22.786Z,100793.66
2019-02-05T00:20:30.698Z,100799.55
2019-02-05T00:24:38.604Z,100798.28
2019-02-05T00:28:46.514Z,100800.53
2019-02-05T00:32:54.274Z,100800.04
2019-02-05T00:37:02.196Z,100817.23
2019-02-05T00:41:10.099Z,100825.92
2019-02-05T00:45:18.198Z,100835.62
2019-02-05T00:49:26.135Z,100835.52
2019-02-05T00:53:33.635Z,100834.79
2019-02-05T00:57:41.544Z,100850.42
2019-02-05T01:01:49.454Z,100853.44
2019-02-05T01:05:57.272Z,100853.03
2019-02-05T01:10:07.947Z,100859.17
2019-02-05T01:14:15.693Z,100859.97
2019-02-05T01:18:23.843Z,100863.14
2019-02-05T01:22:31.761Z,100870.48
2019-02-05T01:26:39.659Z,100860.40
2019-02-05T01:30:47.571Z,100858.50
2019-02-05T01:34:56.461Z,100853.05
2019-02-05T01:39:05.587Z,100848.70
2019-02-05T01:43:13.882Z,100853.66
2019-02-05T01:47:21.893Z,100853.19
2019-02-05T01:51:29.614Z,100855.97
2019-02-05T01:55:37.316Z,100845.49
2019-02-05T01:59:44.819Z,100840.08
2019-02-05T02:03:53.109Z,100844.27
2019-02-05T02:08:01.111Z,100850.14
2019-02-05T02:12:08.616Z,100856.05
2019-02-05T02:16:16.527Z,100868.06
2019-02-05T02:20:24.631Z,100870.66
2019-02-05T02:24:32.629Z,100855.39
2019-02-05T02:28:41.688Z,100861.28
2019-02-05T02:32:49.603Z,100862.85
2019-02-05T02:36:57.523Z,100859.84
2019-02-05T02:41:05.580Z,100849.17
2019-02-05T02:45:13.619Z,100841.86
2019-02-05T02:49:21.516Z,100835.12
2019-02-05T02:53:29.486Z,100844.16
2019-02-05T02:57:37.378Z,100842.57
2019-02-05T03:01:45.301Z,100839.05
2019-02-05T03:05:52.849Z,100852.19
2019-02-05T03:10:00.367Z,100851.72
2019-02-05T03:14:08.161Z,100841.45
2019-02-05T03:18:15.864Z,100832.83
2019-02-05T03:22:23.784Z,100831.70
2019-02-05T03:26:31.776Z,100835.23
2019-02-05T03:30:39.481Z,100840.19
2019-02-05T03:34:47.089Z,100834.00
2019-02-05T03:38:55.007Z,100836.95
2019-02-05T03:43:03.193Z,100818.72
2019-02-05T03:47:11.507Z,100826.75
2019-02-05T03:51:37.112Z,100819.80
2019-02-05T03:56:05.910Z,100834.86
2019-02-05T04:01:04.522Z,100821.44
2019-02-05T04:05:50.927Z,100826.02
2019-02-05T04:10:51.321Z,100823.53
2019-02-05T04:15:21.396Z,100826.23
2019-02-05T04:19:57.306Z,100821.94
2019-02-05T04:24:45.834Z,100808.56
2019-02-05T04:29:16.907Z,100818.61
2019-02-05T04:33:50.030Z,100811.48
2019-02-05T04:38:19.904Z,100812.49
2019-02-05T04:43:05.725Z,100818.72
2019-02-05T04:47:52.470Z,100808.67
2019-02-05T04:52:46.941Z,100817.39
2019-02-05T04:57:56.685Z,100813.95
2019-02-05T05:02:35.896Z,100795.49
2019-02-05T05:07:42.077Z,100805.17
2019-02-05T05:11:49.794Z,100809.25
2019-02-05T05:15:57.714Z,100831.36
2019-02-05T05:20:07.830Z,100838.53
2019-02-05T05:24:15.645Z,100842.56
2019-02-05T05:28:23.654Z,100848.82
2019-02-05T05:32:31.961Z,100864.89
2019-02-05T05:36:48.605Z,100867.43
2019-02-05T05:40:56.578Z,100880.16
2019-02-05T05:45:04.316Z,100885.90
2019-02-05T05:49:12.689Z,100881.48
2019-02-05T05:53:20.884Z,100904.30
2019-02-05T05:57:28.793Z,100914.41
2019-02-05T06:01:36.370Z,100912.80
2019-02-05T06:05:44.388Z,100920.23
2019-02-05T06:09:52.096Z,100927.52
2019-02-05T06:14:00.017Z,100931.49
2019-02-05T06:18:08.401Z,100945.27
2019-02-05T06:22:16.349Z,100946.52
2019-02-05T06:26:24.245Z,100951.74
2019-02-05T06:30:31.959Z,100960.88
2019-02-05T06:34:39.669Z,100950.38
2019-02-05T06:38:47.372Z,100943.50
2019-02-05T06:42:55.283Z,100943.00
2019-02-05T06:47:03.294Z,100949.59
2019-02-05T06:51:11.017Z,100961.77
2019-02-05T06:55:18.546Z,100960.12
2019-02-05T06:59:26.067Z,100955.70
2019-02-05T07:03:33.979Z,100935.22
2019-02-05T07:07:41.879Z,100921.87
2019-02-05T07:11:49.859Z,100913.28
2019-02-05T07:15:57.828Z,100911.28
2019-02-05T07:20:07.417Z,100908.59
2019-02-05T07:24:15.279Z,100909.06
2019-02-05T07:28:22.771Z,100907.97
2019-02-05T07:32:30.463Z,100902.86
2019-02-05T07:36:38.456Z,100901.95
2019-02-05T07:40:46.632Z,100904.89
2019-02-05T07:44:54.509Z,100909.86
2019-02-05T07:49:02.425Z,100911.31
2019-02-05T07:53:10.030Z,100907.00
2019-02-05T07:57:17.946Z,100910.73
2019-02-05T08:01:25.863Z,100903.52
2019-02-05T08:05:34.151Z,100902.02
2019-02-05T08:09:41.921Z,100908.22
2019-02-05T08:13:49.815Z,100909.84
2019-02-05T08:17:57.796Z,100889.55
2019-02-05T08:22:05.629Z,100894.02
2019-02-05T08:26:13.406Z,100903.19
2019-02-05T08:30:23.783Z,100906.74
2019-02-05T08:34:31.335Z,100908.17
2019-02-05T08:38:38.865Z,100916.68
2019-02-05T08:42:46.662Z,100912.33
2019-02-05T08:46:54.369Z,100909.59
2019-02-05T08:51:02.262Z,100905.61
2019-02-05T08:55:11.634Z,100906.83
2019-02-05T08:59:19.320Z,100892.06
2019-02-05T09:03:28.227Z,100892.59
2019-02-05T09:07:36.011Z,100883.61
2019-02-05T09:11:43.908Z,100874.72
2019-02-05T09:15:51.846Z,100865.37
2019-02-05T09:19:59.330Z,100871.64
2019-02-05T09:24:07.771Z,100868.27
2019-02-05T09:28:15.696Z,100876.30
2019-02-05T09:32:23.597Z,100883.87
2019-02-05T09:36:31.082Z,100873.03
2019-02-05T09:40:38.980Z,100862.41
2019-02-05T09:44:46.670Z,100859.31
2019-02-05T09:48:54.566Z,100846.92
2019-02-05T09:53:02.946Z,100864.41
2019-02-05T09:57:11.860Z,100849.95
2019-02-05T10:01:19.556Z,100864.05
2019-02-05T10:05:27.908Z,100867.27
2019-02-05T10:09:35.577Z,100868.59
2019-02-05T10:13:43.478Z,100869.72
2019-02-05T10:17:51.231Z,100864.19
2019-02-05T10:21:59.100Z,100865.98
2019-02-05T10:26:07.013Z,100860.81
2019-02-05T10:30:23.941Z,100854.94
2019-02-05T10:34:34.150Z,100849.24
2019-02-05T10:43:15.116Z,100859.15
2019-02-05T10:47:23.001Z,100863.16
2019-02-05T10:51:30.477Z,100856.45
2019-02-05T10:55:37.971Z,100867.34
2019-02-05T10:59:45.872Z,100867.44
2019-02-05T11:03:53.768Z,100852.39
2019-02-05T11:08:01.244Z,100850.77
2019-02-05T11:12:08.870Z,100848.74
2019-02-05T11:16:16.337Z,100841.58
2019-02-05T11:20:25.265Z,100845.88
2019-02-05T11:24:33.203Z,100850.25
2019-02-05T11:28:40.776Z,100844.34
2019-02-05T11:32:48.465Z,100835.23
2019-02-05T11:36:56.069Z,100825.52
2019-02-05T11:41:03.961Z,100823.80
2019-02-05T11:45:13.262Z,100829.48
2019-02-05T11:49:20.735Z,100827.43
2019-02-05T11:53:28.324Z,100833.39
2019-02-05T11:57:36.210Z,100835.23
2019-02-05T12:01:43.782Z,100842.80
2019-02-05T12:05:51.872Z,100838.69
2019-02-05T12:09:59.643Z,100832.20
2019-02-05T12:14:07.220Z,100831.68
2019-02-05T12:18:15.277Z,100824.30
2019-02-05T12:22:23.558Z,100829.05
2019-02-05T12:26:31.444Z,100816.56
2019-02-05T12:30:44.979Z,100809.05
2019-02-05T12:34:48.713Z,100797.66
2019-02-05T12:38:56.631Z,100786.23
2019-02-05T12:43:05.119Z,100784.00
2019-02-05T12:47:13.002Z,100779.16
2019-02-05T12:51:20.482Z,100772.31
2019-02-05T12:55:28.245Z,100774.31
2019-02-05T12:59:36.136Z,100767.81
2019-02-05T13:03:43.826Z,100765.02
2019-02-05T13:07:51.812Z,100767.66
2019-02-05T13:11:59.953Z,100762.11
2019-02-05T13:16:07.841Z,100765.48
2019-02-05T13:20:19.320Z,100755.75
2019-02-05T13:24:27.211Z,100755.57
2019-02-05T13:28:35.100Z,100760.62
2019-02-05T13:32:42.992Z,100774.72
2019-02-05T13:36:51.481Z,100771.97
2019-02-05T13:40:59.361Z,100767.65
2019-02-05T13:45:08.711Z,100771.47
2019-02-05T13:49:17.608Z,100755.43
2019-02-05T13:53:25.288Z,100752.95
2019-02-05T13:57:32.776Z,100741.69
2019-02-05T14:01:40.666Z,100753.00
2019-02-05T14:05:48.765Z,100747.03
2019-02-05T14:09:56.658Z,100743.66
2019-02-05T14:14:04.554Z,100729.31
2019-02-05T14:18:12.636Z,100729.16
2019-02-05T14:22:20.515Z,100732.53
2019-02-05T14:26:28.399Z,100730.02
2019-02-05T14:30:43.255Z,100725.78
2019-02-05T14:34:50.930Z,100724.48
2019-02-05T14:38:58.619Z,100719.17
2019-02-05T14:43:07.496Z,100720.88
2019-02-05T14:47:15.195Z,100722.05
2019-02-05T14:51:23.071Z,100719.30
2019-02-05T14:55:30.554Z,100730.86
2019-02-05T14:59:38.438Z,100729.05
2019-02-05T15:03:46.310Z,100733.76
2019-02-05T15:07:54.194Z,100721.37
2019-02-05T15:12:01.994Z,100720.16
2019-02-05T15:16:09.883Z,100716.83
2019-02-05T15:20:20.479Z,100715.97
2019-02-05T15:24:37.053Z,100719.88
2019-02-05T15:28:37.547Z,100704.41
2019-02-05T15:33:00.948Z,100715.96
2019-02-05T15:37:08.848Z,100707.13
2019-02-05T15:41:17.026Z,100723.60
2019-02-05T15:45:25.070Z,100716.30
2019-02-05T15:49:32.964Z,100718.98
2019-02-05T15:53:40.447Z,100721.06
2019-02-05T15:57:48.513Z,100722.11
2019-02-05T16:02:06.061Z,100713.19
2019-02-05T16:06:05.914Z,100720.88
2019-02-05T16:10:15.072Z,100708.71
2019-02-05T16:14:22.757Z,100711.07
2019-02-05T16:18:30.632Z,100725.31
2019-02-05T16:22:38.597Z,100718.09
2019-02-05T16:26:46.478Z,100714.45
2019-02-05T16:30:54.363Z,100728.23
2019-02-05T16:35:02.261Z,100727.06
2019-02-05T16:39:11.326Z,100724.88
2019-02-05T16:43:18.818Z,100726.46
2019-02-05T16:47:26.710Z,100730.97
2019-02-05T16:51:34.647Z,100733.25
2019-02-05T16:55:42.533Z,100729.11
2019-02-05T16:59:51.049Z,100723.35
2019-02-05T17:03:58.993Z,100720.59
2019-02-05T17:08:07.282Z,100718.77
2019-02-05T17:12:15.234Z,100725.37
2019-02-05T17:16:22.735Z,100732.14
2019-02-05T17:20:31.086Z,100742.67
2019-02-05T17:24:38.744Z,100751.34
2019-02-05T17:28:46.357Z,100761.11
2019-02-05T17:32:54.055Z,100771.00
2019-02-05T17:37:01.696Z,100776.39
2019-02-05T17:41:09.682Z,100763.43
2019-02-05T17:45:31.768Z,100752.11
2019-02-05T17:49:39.273Z,100745.59
2019-02-05T17:53:47.114Z,100735.15
2019-02-05T17:57:54.706Z,100728.76
2019-02-05T18:02:04.614Z,100723.02
2019-02-05T18:06:12.108Z,100707.78
2019-02-05T18:10:22.227Z,100684.23
2019-02-05T18:14:29.722Z,100683.06
2019-02-05T18:18:37.322Z,100676.33
2019-02-05T18:22:45.105Z,100683.20
2019-02-05T18:26:52.876Z,100681.79
2019-02-05T18:31:01.279Z,100674.14
2019-02-05T18:35:09.548Z,100706.66
2019-02-05T18:39:17.038Z,100713.62
2019-02-05T18:43:24.719Z,100702.80
2019-02-05T18:47:32.788Z,100709.34
2019-02-05T18:51:40.693Z,100717.36
2019-02-05T18:55:49.055Z,100717.16
2019-02-05T18:59:57.505Z,100726.98
2019-02-05T19:04:05.243Z,100728.63
2019-02-05T19:08:16.351Z,100738.05
2019-02-05T19:12:22.522Z,100754.31
2019-02-05T19:16:31.832Z,100749.19
2019-02-05T19:20:39.736Z,100753.70
2019-02-05T19:24:53.455Z,100767.14
2019-02-05T19:29:01.654Z,100752.94
2019-02-05T19:33:09.242Z,100741.36
2019-02-05T19:37:16.835Z,100743.16
2019-02-05T19:41:24.553Z,100746.05
2019-02-05T19:45:59.937Z,100734.69
2019-02-05T19:50:09.577Z,100741.98
2019-02-05T19:54:17.849Z,100741.18
2019-02-05T19:58:25.554Z,100725.72
2019-02-05T20:02:33.540Z,100731.94
2019-02-05T20:06:41.225Z,100752.77
2019-02-05T20:10:49.130Z,100783.23
2019-02-05T20:14:57.017Z,100789.79
2019-02-05T20:19:05.047Z,100799.98
2019-02-05T20:23:12.945Z,100806.68
2019-02-05T20:27:20.617Z,100816.70
2019-02-05T20:31:28.483Z,100843.52
2019-02-05T20:35:36.382Z,100869.80
2019-02-05T20:39:43.904Z,100870.58
2019-02-05T20:43:53.629Z,100852.64
2019-02-05T20:48:01.531Z,100833.48
2019-02-05T20:52:09.631Z,100807.00
2019-02-05T20:56:17.201Z,100790.84
2019-02-05T21:00:25.157Z,100784.27
2019-02-05T21:04:35.366Z,100784.70
2019-02-05T21:08:42.475Z,100768.09
2019-02-05T21:12:50.374Z,100754.09
2019-02-05T21:16:58.282Z,100733.92
2019-02-05T21:21:06.282Z,100738.04
2019-02-05T21:25:16.142Z,100759.61
2019-02-05T21:29:24.029Z,100761.66
2019-02-05T21:33:31.923Z,100766.27
2019-02-05T21:37:39.920Z,100762.44
2019-02-05T21:41:47.925Z,100780.67
2019-02-05T21:45:55.823Z,100771.27
2019-02-05T21:50:05.566Z,100769.81
2019-02-05T21:54:13.280Z,100761.61
2019-02-05T21:58:21.202Z,100769.00
2019-02-05T22:02:29.111Z,100776.16
2019-02-05T22:06:37.014Z,100777.91
2019-02-05T22:10:44.913Z,100778.97
2019-02-05T22:14:52.837Z,100741.75
2019-02-05T22:19:00.936Z,100739.59
2019-02-05T22:23:08.892Z,100741.75
2019-02-05T22:27:16.793Z,100739.41
2019-02-05T22:31:24.298Z,100731.33
2019-02-05T22:35:32.209Z,100719.02
2019-02-05T22:39:39.692Z,100709.95
2019-02-05T22:43:47.631Z,100706.46
2019-02-05T22:47:55.517Z,100694.81
2019-02-05T22:52:03.008Z,100688.29
2019-02-05T22:56:10.892Z,100652.53
2019-02-05T23:00:48.315Z,100638.09
2019-02-05T23:05:25.333Z,100616.16
2019-02-05T23:09:56.480Z,100617.97
2019-02-05T23:14:04.614Z,100637.54
2019-02-05T23:18:12.428Z,100632.38
2019-02-05T23:22:20.241Z,100631.30
2019-02-05T23:26:28.128Z,100614.20
2019-02-05T23:30:36.681Z,100586.14
2019-02-05T23:34:44.395Z,100581.09
2019-02-05T23:38:52.397Z,100560.82
2019-02-05T23:43:00.340Z,100573.28
2019-02-05T23:47:07.834Z,100571.31
2019-02-05T23:51:15.723Z,100575.25
2019-02-05T23:55:23.618Z,100583.45
2019-02-05T23:59:31.216Z,100594.34
